createdAt,value
2019-04-14T00:01:30.393Z,57.20
2019-04-14T00:04:37.864Z,56.50
2019-04-14T00:07:40.558Z,56.50
2019-04-14T00:10:42.211Z,57.10
2019-04-14T00:13:43.608Z,56.70
2019-04-14T00:16:44.991Z,56.70
2019-04-14T00:19:46.344Z,56.10
2019-04-14T00:22:48.904Z,57.20
2019-04-14T00:25:50.430Z,56.90
2019-04-14T00:29:11.588Z,57.10
2019-04-14T00:32:14.096Z,57.20
2019-04-14T00:35:23.333Z,57.20
2019-04-14T00:38:26.634Z,57.10
2019-04-14T00:41:39.429Z,57.60
2019-04-14T00:44:41.059Z,57.30
2019-04-14T00:47:54.806Z,58.40
2019-04-14T00:50:51.670Z,58.70
2019-04-14T00:53:53.714Z,58.10
2019-04-14T00:56:56.220Z,58.10
2019-04-14T00:59:57.769Z,58.70
2019-04-14T01:02:59.033Z,58.30
2019-04-14T01:06:01.158Z,58.00
2019-04-14T01:09:06.432Z,58.90
2019-04-14T01:12:08.262Z,58.40
2019-04-14T01:15:09.578Z,58.20
2019-04-14T01:18:12.566Z,58.80
2019-04-14T01:21:15.236Z,59.10
2019-04-14T01:24:16.913Z,59.00
2019-04-14T01:27:18.914Z,58.30
2019-04-14T01:30:20.475Z,58.40
2019-04-14T01:33:25.035Z,58.80
2019-04-14T01:36:27.649Z,58.60
2019-04-14T01:39:28.983Z,58.30
2019-04-14T01:42:31.076Z,58.00
2019-04-14T01:45:32.510Z,58.30
2019-04-14T01:48:34.618Z,58.10
2019-04-14T01:51:41.719Z,58.00
2019-04-14T01:54:45.299Z,58.00
2019-04-14T01:58:05.453Z,58.60
2019-04-14T02:01:14.945Z,58.40
2019-04-14T02:04:16.358Z,59.00
2019-04-14T02:07:18.809Z,58.50
2019-04-14T02:10:21.663Z,58.60
2019-04-14T02:13:24.629Z,59.10
2019-04-14T02:16:34.855Z,59.20
2019-04-14T02:19:30.353Z,59.90
2019-04-14T02:22:33.352Z,59.50
2019-04-14T02:25:36.011Z,60.20
2019-04-14T02:28:37.757Z,60.60
2019-04-14T02:32:06.891Z,60.30
2019-04-14T02:35:10.889Z,60.90
2019-04-14T02:41:18.386Z,61.00
2019-04-14T02:44:24.296Z,61.50
2019-04-14T02:47:45.442Z,61.60
2019-04-14T02:53:39.393Z,61.70
2019-04-14T02:56:28.077Z,61.70
2019-04-14T02:59:35.497Z,61.60
2019-04-14T03:02:38.579Z,62.40
2019-04-14T03:05:49.910Z,62.00
2019-04-14T03:11:48.416Z,62.20
2019-04-14T03:14:57.051Z,62.60
2019-04-14T03:21:21.700Z,63.10
2019-04-14T03:27:34.525Z,62.60
2019-04-14T03:31:12.030Z,63.20
2019-04-14T03:43:01.701Z,64.10
2019-04-14T03:46:01.064Z,63.80
2019-04-14T03:49:19.770Z,63.70
2019-04-14T03:54:58.213Z,63.30
2019-04-14T03:57:45.544Z,63.80
2019-04-14T04:00:49.012Z,63.80
2019-04-14T04:03:50.599Z,63.70
2019-04-14T04:06:53.049Z,63.80
2019-04-14T04:09:56.568Z,63.30
2019-04-14T04:12:57.896Z,64.00
2019-04-14T04:16:16.440Z,63.20
2019-04-14T04:19:25.677Z,63.10
2019-04-14T04:22:30.400Z,63.20
2019-04-14T04:25:33.705Z,63.20
2019-04-14T04:28:47.107Z,63.40
2019-04-14T04:32:05.744Z,62.50
2019-04-14T04:35:09.094Z,62.40
2019-04-14T04:38:13.736Z,62.30
2019-04-14T04:41:15.377Z,62.20
2019-04-14T04:44:17.930Z,61.70
2019-04-14T04:47:19.408Z,62.40
2019-04-14T04:50:21.374Z,61.90
2019-04-14T04:53:22.887Z,61.50
2019-04-14T04:56:25.369Z,61.20
2019-04-14T04:59:27.751Z,60.50
2019-04-14T05:02:29.144Z,60.60
2019-04-14T05:06:09.143Z,60.90
2019-04-14T05:09:12.468Z,60.80
2019-04-14T05:12:15.861Z,60.00
2019-04-14T05:15:22.651Z,60.50
2019-04-14T05:18:24.789Z,60.30
2019-04-14T05:21:26.096Z,61.00
2019-04-14T05:24:29.062Z,60.80
2019-04-14T05:27:30.447Z,61.20
2019-04-14T05:30:32.876Z,60.40
2019-04-14T05:33:34.622Z,61.40
2019-04-14T05:36:36.744Z,60.90
2019-04-14T05:39:38.110Z,60.60
2019-04-14T05:42:40.650Z,59.60
2019-04-14T05:45:43.688Z,60.00
2019-04-14T05:48:45.329Z,59.60
2019-04-14T05:51:48.125Z,60.10
2019-04-14T05:54:49.547Z,60.10
2019-04-14T05:57:52.504Z,60.00
2019-04-14T06:00:55.824Z,59.60
2019-04-14T06:03:58.158Z,59.70
2019-04-14T06:06:59.725Z,59.20
2019-04-14T06:10:01.015Z,60.00
2019-04-14T06:13:02.672Z,59.10
2019-04-14T06:16:04.299Z,58.40
2019-04-14T06:19:05.590Z,58.80
2019-04-14T06:22:07.219Z,58.30
2019-04-14T06:25:09.215Z,57.80
2019-04-14T06:28:10.782Z,57.60
2019-04-14T06:31:30.503Z,57.00
2019-04-14T06:34:47.404Z,57.20
2019-04-14T06:37:56.409Z,56.60
2019-04-14T06:41:00.267Z,56.80
2019-04-14T06:44:01.679Z,56.80
2019-04-14T06:47:03.817Z,57.80
2019-04-14T06:50:05.580Z,57.60
2019-04-14T06:53:07.231Z,57.20
2019-04-14T06:56:08.858Z,57.00
2019-04-14T06:59:10.342Z,55.60
2019-04-14T07:02:11.621Z,56.00
2019-04-14T07:05:13.201Z,56.70
2019-04-14T07:08:14.591Z,55.40
2019-04-14T07:11:16.197Z,54.60
2019-04-14T07:14:17.646Z,54.40
2019-04-14T07:17:19.158Z,54.00
2019-04-14T07:20:20.540Z,53.60
2019-04-14T07:23:22.539Z,53.00
2019-04-14T07:26:23.805Z,52.90
2019-04-14T07:29:27.007Z,51.70
2019-04-14T07:32:30.332Z,51.30
2019-04-14T07:35:37.080Z,51.20
2019-04-14T07:38:49.190Z,51.40
2019-04-14T07:42:09.364Z,51.30
2019-04-14T07:45:12.577Z,51.10
2019-04-14T07:48:24.817Z,51.10
2019-04-14T07:51:34.534Z,49.40
2019-04-14T07:54:43.960Z,49.10
2019-04-14T07:58:03.698Z,49.00
2019-04-14T08:01:13.549Z,48.70
2019-04-14T08:04:16.727Z,47.30
2019-04-14T08:07:18.310Z,47.60
2019-04-14T08:10:19.593Z,48.20
2019-04-14T08:13:21.065Z,47.30
2019-04-14T08:16:22.331Z,47.00
2019-04-14T08:19:23.632Z,46.30
2019-04-14T08:22:25.002Z,47.00
2019-04-14T08:25:26.832Z,46.20
2019-04-14T08:28:28.078Z,47.20
2019-04-14T08:31:29.366Z,45.30
2019-04-14T08:34:32.751Z,45.60
2019-04-14T08:37:34.787Z,46.80
2019-04-14T08:40:37.281Z,42.90
2019-04-14T08:43:46.241Z,43.90
2019-04-14T08:46:53.034Z,43.30
2019-04-14T08:49:56.207Z,42.00
2019-04-14T08:52:59.532Z,42.20
2019-04-14T08:56:18.079Z,43.10
2019-04-14T08:59:33.512Z,40.90
2019-04-14T09:02:48.622Z,41.40
2019-04-14T09:06:01.247Z,40.90
2019-04-14T09:09:07.429Z,41.10
2019-04-14T09:12:15.728Z,44.50
2019-04-14T09:15:14.079Z,40.90
2019-04-14T09:18:15.552Z,41.40
2019-04-14T09:21:17.214Z,40.70
2019-04-14T09:24:19.404Z,40.10
2019-04-14T09:27:20.672Z,40.70
2019-04-14T09:30:22.370Z,40.30
2019-04-14T09:33:23.795Z,41.90
2019-04-14T09:36:25.921Z,39.90
2019-04-14T09:39:27.706Z,39.20
2019-04-14T09:42:29.210Z,38.50
2019-04-14T09:45:30.490Z,36.90
2019-04-14T09:48:31.802Z,39.80
2019-04-14T09:51:33.185Z,38.70
2019-04-14T09:54:34.847Z,42.10
2019-04-14T09:57:36.113Z,42.40
2019-04-14T10:00:39.650Z,40.80
2019-04-14T10:03:41.450Z,39.20
2019-04-14T10:06:43.114Z,38.90
2019-04-14T10:09:44.430Z,39.80
2019-04-14T10:12:45.817Z,36.70
2019-04-14T10:15:47.152Z,39.00
2019-04-14T10:18:48.570Z,38.90
2019-04-14T10:21:49.979Z,39.40
2019-04-14T10:24:51.747Z,38.50
2019-04-14T10:27:52.971Z,37.80
2019-04-14T10:30:54.477Z,35.80
2019-04-14T10:33:55.796Z,35.90
2019-04-14T10:36:58.458Z,39.80
2019-04-14T10:39:59.787Z,39.00
2019-04-14T10:43:01.254Z,39.10
2019-04-14T10:46:02.546Z,36.40
2019-04-14T10:49:03.979Z,37.10
2019-04-14T10:52:05.474Z,35.70
2019-04-14T10:55:07.180Z,36.00
2019-04-14T10:58:08.486Z,33.00
2019-04-14T11:01:09.992Z,37.20
2019-04-14T11:04:11.271Z,38.00
2019-04-14T11:07:21.074Z,34.70
2019-04-14T11:10:22.480Z,34.00
2019-04-14T11:13:24.001Z,34.10
2019-04-14T11:16:25.666Z,34.40
2019-04-14T11:19:27.138Z,32.30
2019-04-14T11:22:28.654Z,31.60
2019-04-14T11:25:30.302Z,30.10
2019-04-14T11:28:31.576Z,30.20
2019-04-14T11:31:38.083Z,29.90
2019-04-14T11:34:41.937Z,31.20
2019-04-14T11:37:46.358Z,29.20
2019-04-14T11:40:49.548Z,28.20
2019-04-14T11:43:51.065Z,28.30
2019-04-14T11:46:53.201Z,29.50
2019-04-14T11:49:54.563Z,28.50
2019-04-14T11:52:56.064Z,27.40
2019-04-14T11:55:57.706Z,26.80
2019-04-14T11:58:59.186Z,25.40
2019-04-14T12:02:02.385Z,25.00
2019-04-14T12:05:06.303Z,25.60
2019-04-14T12:08:24.751Z,24.10
2019-04-14T12:11:26.215Z,22.00
2019-04-14T12:14:27.921Z,25.20
2019-04-14T12:17:29.867Z,23.30
2019-04-14T12:20:31.277Z,24.00
2019-04-14T12:23:32.762Z,25.30
2019-04-14T12:26:34.053Z,24.40
2019-04-14T12:29:37.458Z,22.20
2019-04-14T12:32:38.864Z,20.70
2019-04-14T12:35:41.312Z,20.10
2019-04-14T12:38:43.314Z,21.30
2019-04-14T12:42:02.475Z,20.40
2019-04-14T12:45:06.286Z,21.40
2019-04-14T12:48:09.776Z,20.30
2019-04-14T12:51:16.210Z,20.00
2019-04-14T12:54:17.722Z,20.50
2019-04-14T12:57:20.943Z,21.00
2019-04-14T13:00:27.412Z,21.70
2019-04-14T13:03:29.128Z,20.60
2019-04-14T13:06:31.462Z,20.90
2019-04-14T13:09:32.749Z,20.00
2019-04-14T13:12:34.343Z,19.30
2019-04-14T13:15:35.739Z,19.80
2019-04-14T13:18:38.239Z,19.00
2019-04-14T13:21:40.556Z,20.70
2019-04-14T13:24:42.181Z,20.00
2019-04-14T13:27:43.488Z,19.80
2019-04-14T13:30:46.391Z,20.00
2019-04-14T13:33:48.673Z,21.10
2019-04-14T13:36:50.956Z,20.80
2019-04-14T13:39:52.230Z,20.60
2019-04-14T13:42:56.069Z,18.60
2019-04-14T13:45:59.912Z,18.10
2019-04-14T13:49:01.253Z,18.40
2019-04-14T13:52:02.542Z,18.20
2019-04-14T13:55:04.245Z,18.90
2019-04-14T13:58:05.615Z,19.80
2019-04-14T14:01:07.500Z,20.40
2019-04-14T14:04:08.795Z,20.00
2019-04-14T14:07:10.580Z,20.00
2019-04-14T14:10:12.176Z,19.20
2019-04-14T14:13:32.593Z,17.60
2019-04-14T14:16:52.317Z,18.60
2019-04-14T14:19:55.678Z,20.00
2019-04-14T14:23:04.910Z,20.50
2019-04-14T14:26:25.097Z,18.50
2019-04-14T14:29:26.390Z,17.60
2019-04-14T14:32:30.122Z,18.90
2019-04-14T14:35:31.470Z,18.40
2019-04-14T14:38:32.806Z,19.50
2019-04-14T14:41:34.347Z,20.10
2019-04-14T14:44:40.554Z,19.30
2019-04-14T14:47:43.939Z,18.80
2019-04-14T14:51:03.730Z,20.80
2019-04-14T14:54:05.200Z,21.20
2019-04-14T14:57:06.599Z,19.80
2019-04-14T15:00:10.723Z,19.70
2019-04-14T15:03:12.117Z,19.90
2019-04-14T15:06:13.555Z,21.30
2019-04-14T15:09:15.517Z,22.40
2019-04-14T15:12:17.227Z,19.80
2019-04-14T15:15:20.476Z,20.60
2019-04-14T15:18:22.043Z,20.60
2019-04-14T15:21:23.317Z,19.10
2019-04-14T15:24:24.662Z,19.60
2019-04-14T15:27:25.941Z,18.00
2019-04-14T15:30:27.433Z,17.80
2019-04-14T15:33:28.714Z,17.70
2019-04-14T15:36:30.506Z,16.90
2019-04-14T15:39:31.814Z,17.20
2019-04-14T15:42:35.704Z,18.10
2019-04-14T15:45:37.236Z,16.50
2019-04-14T15:48:38.684Z,16.80
2019-04-14T15:51:40.064Z,15.90
2019-04-14T15:54:41.897Z,16.50
2019-04-14T15:57:45.229Z,17.00
2019-04-14T16:01:05.426Z,17.20
2019-04-14T16:04:25.900Z,17.60
2019-04-14T16:07:35.250Z,16.80
2019-04-14T16:10:48.127Z,17.10
2019-04-14T16:14:08.403Z,17.30
2019-04-14T16:17:28.776Z,17.30
2019-04-14T16:20:32.487Z,16.60
2019-04-14T16:23:34.346Z,18.10
2019-04-14T16:26:40.446Z,17.10
2019-04-14T16:29:52.750Z,18.50
2019-04-14T16:33:06.408Z,19.80
2019-04-14T16:36:08.186Z,19.30
2019-04-14T16:39:09.768Z,21.30
2019-04-14T16:42:14.318Z,22.90
2019-04-14T16:45:15.790Z,23.20
2019-04-14T16:48:17.220Z,24.20
2019-04-14T16:51:23.242Z,26.00
2019-04-14T16:54:32.745Z,27.00
2019-04-14T16:57:52.532Z,28.30
2019-04-14T17:01:02.709Z,29.90
2019-04-14T17:04:04.202Z,31.70
2019-04-14T17:07:05.494Z,32.50
2019-04-14T17:10:06.784Z,32.60
2019-04-14T17:13:08.746Z,34.60
2019-04-14T17:16:12.139Z,34.60
2019-04-14T17:19:27.559Z,35.10
2019-04-14T17:22:30.994Z,36.70
2019-04-14T17:25:38.722Z,36.80
2019-04-14T17:28:42.096Z,37.60
2019-04-14T17:31:52.204Z,38.40
2019-04-14T17:35:06.972Z,38.90
2019-04-14T17:38:13.950Z,40.00
2019-04-14T17:41:23.428Z,39.70
2019-04-14T17:44:29.771Z,40.00
2019-04-14T17:47:39.282Z,40.70
2019-04-14T17:50:42.514Z,40.50
2019-04-14T17:54:04.548Z,42.00
2019-04-14T17:57:24.598Z,42.50
2019-04-14T18:00:30.889Z,43.00
2019-04-14T18:03:34.202Z,42.90
2019-04-14T18:06:37.463Z,43.80
2019-04-14T18:09:40.685Z,43.30
2019-04-14T18:13:00.804Z,44.00
2019-04-14T18:16:22.245Z,45.20
2019-04-14T18:19:28.017Z,44.30
2019-04-14T18:22:29.301Z,46.00
2019-04-14T18:25:31.472Z,46.00
2019-04-14T18:28:39.721Z,46.40
2019-04-14T18:31:43.274Z,46.60
2019-04-14T18:34:50.710Z,46.80
2019-04-14T18:37:54.821Z,47.40
2019-04-14T18:41:08.002Z,47.90
2019-04-14T18:44:11.433Z,48.00
2019-04-14T18:47:29.907Z,48.80
2019-04-14T18:50:33.386Z,48.30
2019-04-14T18:53:42.884Z,49.40
2019-04-14T18:56:52.401Z,48.90
2019-04-14T19:00:11.730Z,48.80
2019-04-14T19:03:13.797Z,49.40
2019-04-14T19:06:15.244Z,49.50
2019-04-14T19:09:19.331Z,49.80
2019-04-14T19:12:25.378Z,50.20
2019-04-14T19:15:34.832Z,51.90
2019-04-14T19:18:38.368Z,51.80
2019-04-14T19:21:39.931Z,51.60
2019-04-14T19:24:41.617Z,51.70
2019-04-14T19:27:48.563Z,52.60
2019-04-14T19:30:49.858Z,52.50
2019-04-14T19:33:53.579Z,52.10
2019-04-14T19:36:55.796Z,52.50
2019-04-14T19:39:57.086Z,53.40
2019-04-14T19:42:59.116Z,54.10
2019-04-14T19:46:00.734Z,54.20
2019-04-14T19:49:02.325Z,53.50
2019-04-14T19:52:03.811Z,53.80
2019-04-14T19:55:05.394Z,54.10
2019-04-14T19:58:07.274Z,54.50
2019-04-14T20:01:08.552Z,54.70
2019-04-14T20:04:10.142Z,55.20
2019-04-14T20:07:11.768Z,54.70
2019-04-14T20:10:13.258Z,54.60
2019-04-14T20:13:15.651Z,54.80
2019-04-14T20:16:31.218Z,54.50
2019-04-14T20:19:52.315Z,54.80
2019-04-14T20:26:34.651Z,54.90
2019-04-14T20:29:38.222Z,55.10
2019-04-14T20:32:41.393Z,55.30
2019-04-14T20:35:42.988Z,55.20
2019-04-14T20:38:44.703Z,56.00
2019-04-14T20:41:46.988Z,56.00
2019-04-14T20:44:48.348Z,56.10
2019-04-14T20:47:49.642Z,56.10
2019-04-14T20:50:50.920Z,56.70
2019-04-14T20:53:52.907Z,56.50
2019-04-14T20:56:54.211Z,56.30
2019-04-14T20:59:56.091Z,56.40
2019-04-14T21:03:15.911Z,56.00
2019-04-14T21:06:35.826Z,55.70
2019-04-14T21:09:44.927Z,55.80
2019-04-14T21:13:03.457Z,55.80
2019-04-14T21:16:12.878Z,55.60
2019-04-14T21:19:17.617Z,56.20
2019-04-14T21:22:23.869Z,55.70
2019-04-14T21:25:27.134Z,56.30
2019-04-14T21:28:34.193Z,56.10
2019-04-14T21:31:40.437Z,56.80
2019-04-14T21:34:58.983Z,56.30
2019-04-14T21:38:05.293Z,57.00
2019-04-14T21:41:08.529Z,56.70
2019-04-14T21:44:10.070Z,56.60
2019-04-14T21:47:11.405Z,57.30
2019-04-14T21:50:12.913Z,57.30
2019-04-14T21:56:35.311Z,57.80
2019-04-14T21:59:53.483Z,57.30
2019-04-14T22:03:11.787Z,58.20
2019-04-14T22:06:15.209Z,57.90
2019-04-14T22:09:18.631Z,58.40
2019-04-14T22:12:20.212Z,58.70
2019-04-14T22:15:21.869Z,58.60
2019-04-14T22:18:23.162Z,59.20
2019-04-14T22:21:29.376Z,59.90
2019-04-14T22:28:35.185Z,62.30
2019-04-14T22:31:36.535Z,61.20
2019-04-14T22:34:38.305Z,62.00
2019-04-14T22:37:42.545Z,62.50
2019-04-14T22:40:43.989Z,64.00
2019-04-14T22:43:45.286Z,64.10
2019-04-14T22:46:46.674Z,64.30
2019-04-14T22:49:47.966Z,64.10
2019-04-14T22:52:49.345Z,65.40
2019-04-14T22:55:50.961Z,66.00
2019-04-14T22:58:54.225Z,66.70
2019-04-14T23:01:59.850Z,66.80
2019-04-14T23:05:08.283Z,67.00
2019-04-14T23:08:14.279Z,68.00
2019-04-14T23:11:23.440Z,68.80
2019-04-14T23:14:26.629Z,68.60
2019-04-14T23:17:32.938Z,69.50
2019-04-14T23:20:36.119Z,69.70
2019-04-14T23:23:39.330Z,70.30
2019-04-14T23:30:21.548Z,70.70
2019-04-14T23:33:22.939Z,72.00
2019-04-14T23:36:24.702Z,72.00
2019-04-14T23:39:25.990Z,72.80
2019-04-14T23:42:27.281Z,72.20
2019-04-14T23:45:28.661Z,72.50
2019-04-14T23:48:30.058Z,72.90
2019-04-14T23:51:31.333Z,72.90
2019-04-14T23:54:32.789Z,72.50
2019-04-14T23:57:34.063Z,72.50
